Flight Track Log - Related Links

Times and Time Zones

All times are in EDT time to prevent confusion due to time zone crossing. See the CTL13 flight status page for this flight to view local times or setup timezone preferences in your user account.

Time Position Orientation Groundspeed Altitude Reporting Facility
EDT Latitude Longitude Course Direction KTS MPH feet Rate Location/Type
Wed 11:22:37 PM 41.8000 -87.7167 90° East 118 136 2,000  Level Chicago TRACON
Wed 11:23:31 PM 41.8000 -87.6833 90° East 121 139 2,900 550 Climbing Chicago TRACON
Wed 11:24:37 PM 41.8000 -87.6167 90° East 156 180 3,100 118 Climbing Chicago TRACON
Wed 11:25:13 PM 41.7964 -87.5922 101° East 136 157 3,100  Level Chicago Center
Wed 11:26:14 PM 41.8094 -87.5339 73° East 152 175 3,100  Level Chicago Center
Wed 11:27:16 PM 41.8267 -87.4808 66° East 157 181 3,100  Level Chicago Center
Wed 11:28:17 PM 41.8481 -87.4219 64° Northeast 151 174 3,100  Level Chicago Center
Wed 11:29:19 PM 41.8722 -87.3758 55° Northeast 151 174 3,100  Level Chicago Center
Wed 11:30:20 PM 41.8986 -87.3322 51° Northeast 151 174 3,100  Level Chicago Center
Wed 11:31:21 PM 41.9228 -87.2864 55° Northeast 151 174 3,100  Level Chicago Center
Wed 11:32:23 PM 41.9472 -87.2408 54° Northeast 151 174 3,100  Level Chicago Center
Wed 11:33:24 PM 41.9722 -87.1964 53° Northeast 151 174 3,100  Level Chicago Center
Wed 11:34:26 PM 41.9992 -87.1494 52° Northeast 154 177 3,100  Level Chicago Center
Wed 11:35:27 PM 42.0247 -87.1042 53° Northeast 154 177 3,100  Level Chicago Center
Wed 11:36:28 PM 42.0561 -87.0494 52° Northeast 155 178 3,100 -49 Level Chicago Center
Wed 11:37:30 PM 42.0831 -87.0031 52° Northeast 156 180 3,000 -49 Descending Chicago Center
Wed 11:38:31 PM 42.1058 -86.9644 52° Northeast 155 178 3,000  Level Chicago Center
Wed 11:40:21 PM 42.1511 -86.8689 57° Northeast 164 189 3,000  Level Chicago Center
Wed 11:41:22 PM 42.1786 -86.8292 47° Northeast 154 177 3,000  Level Chicago Center
Wed 11:42:23 PM 42.2036 -86.7864 52° Northeast 149 171 3,000 -98 Level Chicago Center
Wed 11:43:25 PM 42.2281 -86.7417 54° Northeast 148 170 2,800 -98 Descending Chicago Center
Wed 11:44:26 PM 42.2522 -86.6975 54° Northeast 148 170 2,800  Level Chicago Center
Wed 11:45:27 PM 42.2775 -86.6531 52° Northeast 145 167 2,800  Level Chicago Center
Wed 11:46:28 PM 42.3008 -86.6106 53° Northeast 141 162 2,800  Level Chicago Center
Wed 11:47:29 PM 42.3225 -86.5694 55° Northeast 143 165 2,800  Level Chicago Center
Wed 11:48:31 PM 42.3450 -86.5267 55° Northeast 141 162 2,800  Level Chicago Center
Wed 11:49:32 PM 42.3675 -86.4822 56° Northeast 143 165 2,800  Level Chicago Center
Wed 11:50:33 PM 42.3978 -86.4322 51° Northeast 144 166 2,800 49 Level Chicago Center
Wed 11:51:34 PM 42.4206 -86.3886 55° Northeast 142 163 2,900 49 Climbing Chicago Center
Wed 11:52:35 PM 42.4419 -86.3469 55° Northeast 139 160 2,900  Level Chicago Center
Wed 11:53:36 PM 42.4644 -86.3031 55° Northeast 140 161 2,900  Level Chicago Center
Wed 11:54:37 PM 42.4869 -86.2636 52° Northeast 136 157 2,900  Level Chicago Center
Wed 11:55:38 PM 42.5094 -86.2222 54° Northeast 136 157 2,900 -49 Level Chicago Center
Wed 11:56:39 PM 42.5336 -86.1831 50° Northeast 136 157 2,800 -49 Descending Chicago Center
Wed 11:57:40 PM 42.5575 -86.1447 50° Northeast 135 155 2,800  Level Chicago Center
Wed 11:58:42 PM 42.5822 -86.1069 48° Northeast 134 154 2,800  Level Chicago Center
Wed 11:59:43 PM 42.6119 -86.0756 38° Northeast 135 155 2,800  Level Chicago Center
Thu 12:00:44 AM 42.6500 -86.0436 32° Northeast 136 157 2,800  Level Chicago Center
Thu 12:01:45 AM 42.6800 -86.0139 36° Northeast 134 154 2,800  Level Chicago Center
Thu 12:02:46 AM 42.7106 -85.9850 35° Northeast 134 154 2,800  Level Chicago Center
Thu 12:03:47 AM 42.7383 -85.9564 37° Northeast 130 150 2,800  Level Chicago Center
Thu 12:04:48 AM 42.7647 -85.9300 36° Northeast 124 143 2,800  Level Chicago Center
Thu 12:05:49 AM 42.7858 -85.8983 48° Northeast 118 136 2,800 49 Level Chicago Center
Thu 12:06:50 AM 42.8044 -85.8661 52° Northeast 113 130 2,900 98 Climbing Chicago Center
Thu 12:07:51 AM 42.8233 -85.8342 51° Northeast 110 127 3,000 98 Climbing Chicago Center

Login

Don't have an account? Register now (free) for customized features, flight alerts, and more!